Record high temperature 100.4°F Record low temperature 10.6°F Record high gust 45 mph Record high average 23.3 mph Record daily rain 11.65 in. Record low windchill 2.7°F Record high barometer 30.818 in. Record low barometer 29.117 in.
Daily high pressure 30.241 in. Daily low pressure 30.166 in. Daily low windchill 43.6°F Daily high heat index 48.4°F Daily high gust speed 3.5 mph WSW Daily high average speed 1.4 mph WSW
On the Greenway Weather data
LAST READING AT TIME: 10:13 AM DATE: January 25 2015, time of next update: 10:14 am
Current Weather/Dry Current Temperature 46.3°F (7.9°C), Apparent temp 45.6°F
Maximum Temperature (since midnight)48.4°F at: 12:00 AM Minimum Temperature (since midnight)44.6°F at: 8:02 AM
Average windspeed (ten minute)0.0 mph Wind Direction (ten minute)WSW (247°)
Windchill Temperature 46.3°F Maximum Gust (last hour) 2 mph at: 9:36 AM
Maximum Gust (since midnight) 3 mph at: 8:06 AM Maximum 1 minute average (since midnight)1.4 mph at: 8:07 AM
Rainfall (last hour)0.00 in. (0.0 mm) Rainfall (since midnight)0.01 in. (0.3 mm) at 1:23 AM
Rainfall This month 3.35 in. (85.1 mm) Rainfall To date this year 20.40 in. (518.2 mm)
Maximum rain per minute (last hour)0.00 in/min Maximum rain per hour (last 6 hours)0.00 in/hour
Yesterdays rainfall 0.00 in DewPoint 44.4°F (Wet Bulb :45.4°F )
Humidity 93 %, Humidex 46.2°F Barometer corrected to msl30.166 in. (1021.6 hPa)
Pressure change -0.01 in. (last hour) Trend (last hour)STEADY
Pressure change (last 12 hours)-0.08 in Pressure change (last 6 hours)-0.05 in

This page is updated from recent data collected by a DAVIS VANTAGE PRO weather station Use the Reload or Refresh facility on your browser to retrieve the latest data.


Click here for the last 24 hour graph
Click here for the last 48 hour graph
Click here for the last 72 hour graph
Click here for the month to date graph


Weather report/Warning/Metars

PORTLAND-HILLSBORO AIRPORT, OR, United States (KHIO) 45-33N 122-57W 68M
Jan 25, 2015 - 12:53 PM EST / 2015.01.25 1753 UTC
Wind: Calm (direction variable):0
Visibility: less than 1/4 mile(s):1
Sky conditions: obscured
Weather: fog
Temperature: 44.1 F (6.7 C)
Dew Point: 44.1 F (6.7 C)
Relative Humidity: 100%
Pressure (altimeter): 30.17 in. Hg (1021 hPa)
Pressure tendency: 0.03 inches (1.0 hPa) lower than three hours ago
ob: KHIO 251753Z 00000KT M1/4SM R13/1000V1200FT FG VV002 07/07 A3017 RMK AO2 SLP217 T00670067 10067 20050 56010
cycle: 18
PORTLAND INTERNATIONAL  AIRPORT, OR, United States (KPDX) 45-35N 122-36W 7M
Jan 25, 2015 - 12:53 PM EST / 2015.01.25 1753 UTC
Wind: Calm (direction variable):0
Visibility: 1/4 mile(s):0
Sky conditions: obscured
Weather: fog
Temperature: 46.0 F (7.8 C)
Dew Point: 46.0 F (7.8 C)
Relative Humidity: 100%
Pressure (altimeter): 30.18 in. Hg (1022 hPa)
Pressure tendency: 0.03 inches (1.1 hPa) lower than three hours ago
ob: KPDX 251753Z 00000KT 1/4SM R10R/1600V2200FT FG VV002 08/08 A3018 RMK AO2 TWR VIS 1/4 SLP217 T00780078 10089 20078 58011
cycle: 18
PORTLAND-TROUTDALE AIRPORT, OR, United States (KTTD) 45-33N 122-25W 14M
Jan 25, 2015 - 12:53 PM EST / 2015.01.25 1753 UTC
Wind: Calm:0
Visibility: 1 1/4 mile(s):0
Sky conditions: overcast
Weather: mist
Temperature: 46.9 F (8.3 C)
Dew Point: 46.0 F (7.8 C)
Relative Humidity: 96%
Pressure (altimeter): 30.16 in. Hg (1021 hPa)
Pressure tendency: 0.02 inches (0.8 hPa) lower than three hours ago
ob: KTTD 251753Z 00000KT 1 1/4SM BR OVC002 08/08 A3016 RMK AO2 SLP212 T00830078 10094 20072 58008
cycle: 18
MCMINNVILLE MUNICIPAL AIRPORT , OR, United States (KMMV) 45-12N 123-08W 48M
Jan 25, 2015 - 12:53 PM EST / 2015.01.25 1753 UTC
Wind: Calm:0
Visibility: less than 1/4 mile(s):1
Sky conditions: obscured
Weather: fog
Temperature: 45.0 F (7.2 C)
Dew Point: 45.0 F (7.2 C)
Relative Humidity: 100%
Pressure (altimeter): 30.18 in. Hg (1022 hPa)
Pressure tendency: 0.03 inches (0.9 hPa) lower than three hours ago
ob: KMMV 251753Z AUTO 00000KT M1/4SM FG VV002 07/07 A3018 RMK AO2 SLP219 T00720072 10078 20061 56009
cycle: 18
SALEM MCNARY FIELD, OR, United States (KSLE) 44-54N 123-00W 59M
Jan 25, 2015 - 12:56 PM EST / 2015.01.25 1756 UTC
Wind: from the N (360 degrees) at 3 MPH (3 KT) (direction variable):0
Visibility: 1/2 mile(s):0
Sky conditions: obscured
Weather: fog
Temperature: 46.0 F (7.8 C)
Dew Point: 45.0 F (7.2 C)
Relative Humidity: 95%
Pressure (altimeter): 30.17 in. Hg (1021 hPa)
Pressure tendency: 0.02 inches (0.6 hPa) lower than three hours ago
ob: KSLE 251756Z 36003KT 1/2SM R31/1400V2400FT FG VV002 08/07 A3017 RMK AO2 SLP216 T00780072 10089 20078 55006
cycle: 18


Sunset at:
5:06 pm

Moonrise at:
10:34 am 01/25/15

Moonset at:
10:44 pm 01/24/15

First Quarter  27 January 2015
Full moon  3 February 2015
Last Quarter12 February 2015
New moon 18 February 2015
Moon age: 5 days,17 hours,32 minutes,33%
Hours of possible daylight today was 09:27



Use the RELOAD facility on your browser to retrieve the latest data.

Click here for current Fire weather info
Click here for the daily CLIMATOLOGICAL SUMMARY
Click here for a daily update of the averages/extremes to date for the month




Created by "Weather Display" software version 10.37R Build 81 at this start time/date 7:02 am 1/25/2015




On The Greenway Weather Web Site

 
 
HELP US OUT
Help us keep this weather station on the web. for the Tigard / Portland internet users to use. If you would like to help, click the donate button below
 
This site is purely funded by donations and by myself (Ray Cooper)
Anything you can do will help keep this station on the net
Average cost per year is $665 to publish and host this site excluding the cost of the weather equipment
Buyastrostuff.com is kind enough to host our DNS and email at no cost.
THANKS GUYS & Gals for helping
Have a Question,or just want to talk. Contact me at:
Ray Cooper @ Buyastrostuff.com